Time;durP1;ratioP1;P1;durP2;ratioP2;P2;SDS_P1;SDS_P2;PMS_P1;PMS_P2;Temp;Humidity;BMP_temperature;BMP_pressure;BME280_temperature;BME280_humidity;BME280_pressure;Samples;Min_cycle;Max_cycle;Signal;HPM_P1;HPM_P2
2022/06/20 00:00:09;;;;;;;8.10;4.43;;;;;;;;;;5048754;28;20243;-72
2022/06/20 00:02:38;;;;;;;10.47;4.77;;;;;;;;;;5044789;28;20186;-73
2022/06/20 00:05:05;;;;;;;7.03;4.20;;;;;;;;;;5045087;28;20180;-71
2022/06/20 00:07:31;;;;;;;8.53;4.50;;;;;;;;;;5044598;28;20214;-73
2022/06/20 00:09:57;;;;;;;8.87;4.57;;;;;;;;;;5049295;28;20209;-72
2022/06/20 00:12:25;;;;;;;7.80;4.33;;;;;;;;;;5043979;28;20229;-72
2022/06/20 00:14:54;;;;;;;8.67;4.80;;;;;;;;;;5046095;28;20214;-72
2022/06/20 00:17:20;;;;;;;8.47;4.83;;;;;;;;;;5044239;28;20251;-72
2022/06/20 00:19:46;;;;;;;10.80;4.67;;;;;;;;;;5045361;28;20206;-72
2022/06/20 00:22:12;;;;;;;12.53;5.00;;;;;;;;;;5048327;28;20182;-72
2022/06/20 00:24:38;;;;;;;7.57;4.30;;;;;;;;;;5049611;28;20184;-72
2022/06/20 00:27:06;;;;;;;8.10;4.33;;;;;;;;;;5049831;28;20777;-72
2022/06/20 00:29:37;;;;;;;8.60;4.77;;;;;;;;;;5045447;28;20201;-72
2022/06/20 00:32:03;;;;;;;8.30;4.47;;;;;;;;;;5046974;28;20190;-71
2022/06/20 00:34:30;;;;;;;8.07;4.67;;;;;;;;;;5047180;28;20190;-72
2022/06/20 00:36:56;;;;;;;9.23;4.57;;;;;;;;;;5047722;28;21374;-72
2022/06/20 00:39:23;;;;;;;7.33;4.43;;;;;;;;;;5042039;28;20206;-72
2022/06/20 00:41:50;;;;;;;7.23;4.40;;;;;;;;;;5038004;28;20183;-72
2022/06/20 00:44:19;;;;;;;11.53;5.00;;;;;;;;;;5042406;28;20186;-72
2022/06/20 00:47:08;;;;;;;9.40;4.47;;;;;;;;;;5040328;28;20197;-72
2022/06/20 00:49:56;;;;;;;8.03;4.40;;;;;;;;;;5027889;28;20269;-70
2022/06/20 00:52:46;;;;;;;8.77;4.80;;;;;;;;;;5043474;28;20263;-72
2022/06/20 00:55:33;;;;;;;6.00;4.20;;;;;;;;;;5026586;28;20762;-72
2022/06/20 00:58:27;;;;;;;7.97;4.63;;;;;;;;;;5040670;28;20620;-72
2022/06/20 01:01:13;;;;;;;8.23;4.50;;;;;;;;;;5045535;28;20192;-75
2022/06/20 01:04:00;;;;;;;9.27;4.70;;;;;;;;;;5046280;28;20278;-74
2022/06/20 01:06:49;;;;;;;7.97;4.10;;;;;;;;;;5043787;28;20332;-75
2022/06/20 01:09:37;;;;;;;9.07;4.30;;;;;;;;;;5047930;28;20254;-75
2022/06/20 01:12:24;;;;;;;7.07;4.43;;;;;;;;;;5046961;28;20228;-75
2022/06/20 01:15:20;;;;;;;10.53;4.30;;;;;;;;;;5048902;28;20231;-74
2022/06/20 01:18:05;;;;;;;7.97;4.37;;;;;;;;;;5048740;28;20228;-74
2022/06/20 01:20:51;;;;;;;7.30;4.07;;;;;;;;;;5045520;28;20217;-74
2022/06/20 01:23:59;;;;;;;8.30;4.53;;;;;;;;;;5045775;28;20197;-75
2022/06/20 01:26:52;;;;;;;10.33;4.53;;;;;;;;;;5043499;28;20217;-75
2022/06/20 01:29:37;;;;;;;8.77;4.50;;;;;;;;;;5046657;28;20665;-74
2022/06/20 01:32:22;;;;;;;7.93;4.40;;;;;;;;;;5048360;28;20213;-74
2022/06/20 01:35:08;;;;;;;9.87;4.10;;;;;;;;;;5047494;28;20212;-75
2022/06/20 01:37:53;;;;;;;9.67;4.03;;;;;;;;;;5047116;28;20680;-74
2022/06/20 01:42:18;;;;;;;8.50;4.83;;;;;;;;;;5047264;28;20576;-74
2022/06/20 01:43:45;;;;;;;7.30;3.90;;;;;;;;;;5044751;28;20209;-75
2022/06/20 01:46:31;;;;;;;9.30;4.47;;;;;;;;;;5049036;28;20236;-74
2022/06/20 01:49:19;;;;;;;10.27;4.60;;;;;;;;;;5040959;28;20211;-75
2022/06/20 01:52:23;;;;;;;6.80;3.47;;;;;;;;;;5042899;28;20205;-74
2022/06/20 01:55:11;;;;;;;8.80;3.77;;;;;;;;;;5048765;28;20221;-73
2022/06/20 01:57:59;;;;;;;8.10;3.93;;;;;;;;;;5045098;28;20252;-75
2022/06/20 02:00:47;;;;;;;13.67;4.63;;;;;;;;;;5047297;28;20208;-74
2022/06/20 02:03:34;;;;;;;7.97;3.90;;;;;;;;;;5043715;28;20209;-74
2022/06/20 02:06:19;;;;;;;7.27;3.47;;;;;;;;;;5043258;28;20209;-74
2022/06/20 02:09:04;;;;;;;9.73;3.50;;;;;;;;;;5049720;28;20292;-74
2022/06/20 02:11:49;;;;;;;9.03;3.20;;;;;;;;;;5045367;28;20233;-74
2022/06/20 02:14:37;;;;;;;9.50;3.33;;;;;;;;;;5044292;28;20255;-74
2022/06/20 02:17:27;;;;;;;13.30;4.07;;;;;;;;;;5043409;28;20192;-73
2022/06/20 02:20:15;;;;;;;7.60;3.27;;;;;;;;;;5046743;28;20237;-74
2022/06/20 02:23:00;;;;;;;6.97;3.07;;;;;;;;;;5049277;28;20197;-74
2022/06/20 02:25:47;;;;;;;7.93;3.27;;;;;;;;;;5037733;28;20502;-74
2022/06/20 02:28:34;;;;;;;6.87;3.10;;;;;;;;;;5038929;28;20239;-74
2022/06/20 02:31:19;;;;;;;8.97;3.10;;;;;;;;;;5054645;28;20323;-74
2022/06/20 02:34:04;;;;;;;5.97;3.27;;;;;;;;;;5045212;28;20192;-74
2022/06/20 02:36:49;;;;;;;8.83;3.10;;;;;;;;;;5040282;28;20285;-74
2022/06/20 02:39:36;;;;;;;8.53;3.50;;;;;;;;;;5045147;28;20270;-74
2022/06/20 02:42:24;;;;;;;7.57;3.50;;;;;;;;;;5041552;28;20577;-74
2022/06/20 02:45:11;;;;;;;7.53;3.47;;;;;;;;;;5047306;28;20212;-74
2022/06/20 02:47:58;;;;;;;6.30;3.10;;;;;;;;;;5042553;28;20192;-73
2022/06/20 02:50:46;;;;;;;10.57;3.50;;;;;;;;;;5044655;28;20623;-74
2022/06/20 02:53:33;;;;;;;7.60;3.07;;;;;;;;;;5039132;28;20260;-74
2022/06/20 02:56:20;;;;;;;5.97;3.20;;;;;;;;;;5039319;28;20216;-73
2022/06/20 02:59:07;;;;;;;14.30;4.10;;;;;;;;;;5043597;28;20217;-74
2022/06/20 03:02:01;;;;;;;7.63;3.30;;;;;;;;;;5045377;28;20200;-75
2022/06/20 03:04:46;;;;;;;6.57;3.20;;;;;;;;;;5046844;28;20256;-75
2022/06/20 03:07:34;;;;;;;8.13;3.53;;;;;;;;;;5047496;28;20201;-74
2022/06/20 03:10:38;;;;;;;5.40;3.10;;;;;;;;;;5043803;28;20212;-74
2022/06/20 03:13:23;;;;;;;8.20;3.30;;;;;;;;;;5044037;28;20192;-73
2022/06/20 03:16:08;;;;;;;8.00;3.03;;;;;;;;;;5040074;28;20508;-73
2022/06/20 03:18:52;;;;;;;6.30;2.70;;;;;;;;;;5042816;28;20266;-72
2022/06/20 03:21:38;;;;;;;11.03;3.27;;;;;;;;;;5048512;28;20676;-72
2022/06/20 03:24:24;;;;;;;5.80;3.00;;;;;;;;;;5045614;28;20263;-72
2022/06/20 03:27:14;;;;;;;9.93;2.83;;;;;;;;;;5039483;28;20328;-73
2022/06/20 03:30:04;;;;;;;5.10;2.63;;;;;;;;;;5039400;28;20267;-73
2022/06/20 03:32:49;;;;;;;6.17;3.07;;;;;;;;;;5044941;28;20193;-72
2022/06/20 03:35:34;;;;;;;7.07;3.17;;;;;;;;;;5046246;28;20574;-73
2022/06/20 03:38:19;;;;;;;6.77;2.80;;;;;;;;;;5043671;28;20239;-73
2022/06/20 03:41:05;;;;;;;5.63;2.70;;;;;;;;;;5045940;28;20293;-72
2022/06/20 03:43:58;;;;;;;6.17;2.77;;;;;;;;;;5041810;28;20196;-72
2022/06/20 03:46:49;;;;;;;5.07;2.80;;;;;;;;;;5047105;28;20247;-72
2022/06/20 03:49:40;;;;;;;6.07;2.87;;;;;;;;;;5042426;28;20276;-72
2022/06/20 03:52:26;;;;;;;7.07;2.80;;;;;;;;;;5047739;28;20560;-72
2022/06/20 03:55:30;;;;;;;7.70;3.00;;;;;;;;;;5043941;28;20696;-72
2022/06/20 03:58:18;;;;;;;4.43;2.50;;;;;;;;;;5044875;28;20204;-73
2022/06/20 04:01:06;;;;;;;4.87;2.60;;;;;;;;;;5043831;28;20208;-72
2022/06/20 04:04:00;;;;;;;5.63;2.63;;;;;;;;;;5046543;28;20208;-73
2022/06/20 04:06:50;;;;;;;5.07;2.50;;;;;;;;;;5048939;28;20203;-72
2022/06/20 04:12:59;;;;;;;8.27;2.50;;;;;;;;;;5044923;28;20204;-73
2022/06/20 04:15:46;;;;;;;11.67;2.70;;;;;;;;;;5047702;28;20192;-73
2022/06/20 04:18:31;;;;;;;4.83;2.50;;;;;;;;;;5045238;28;20744;-70
2022/06/20 04:21:16;;;;;;;8.53;2.90;;;;;;;;;;5046589;28;20590;-73
2022/06/20 04:24:16;;;;;;;9.57;2.70;;;;;;;;;;5042980;28;20192;-73
2022/06/20 04:27:04;;;;;;;5.63;2.60;;;;;;;;;;5045847;28;20212;-73
2022/06/20 04:29:51;;;;;;;4.93;2.63;;;;;;;;;;5048871;28;20613;-73
2022/06/20 04:32:39;;;;;;;5.73;2.70;;;;;;;;;;5046737;28;20194;-73
2022/06/20 04:35:27;;;;;;;6.37;2.33;;;;;;;;;;5043171;28;20225;-73
2022/06/20 04:38:24;;;;;;;11.43;2.90;;;;;;;;;;5042454;28;20264;-73
2022/06/20 04:41:11;;;;;;;4.60;2.50;;;;;;;;;;5034314;28;20239;-73
2022/06/20 04:44:02;;;;;;;3.67;2.40;;;;;;;;;;5042622;28;20215;-72
2022/06/20 04:46:49;;;;;;;6.40;2.50;;;;;;;;;;5037213;28;20279;-73
2022/06/20 04:49:35;;;;;;;5.40;2.60;;;;;;;;;;5042956;28;20224;-73
2022/06/20 04:52:22;;;;;;;5.30;2.50;;;;;;;;;;5045156;28;20223;-73
2022/06/20 04:55:07;;;;;;;4.23;2.60;;;;;;;;;;5039427;28;20213;-73
2022/06/20 04:57:53;;;;;;;6.23;2.50;;;;;;;;;;5047113;28;20193;-73
2022/06/20 05:00:42;;;;;;;5.73;2.60;;;;;;;;;;5041288;28;20223;-71
2022/06/20 05:03:29;;;;;;;9.67;3.33;;;;;;;;;;5044002;28;20224;-73
2022/06/20 05:06:22;;;;;;;5.97;2.40;;;;;;;;;;5047040;28;20275;-72
2022/06/20 05:09:11;;;;;;;5.40;2.80;;;;;;;;;;5038387;28;20209;-73
2022/06/20 05:12:05;;;;;;;5.00;2.67;;;;;;;;;;5044181;28;20235;-73
2022/06/20 05:14:53;;;;;;;6.13;2.70;;;;;;;;;;5037633;28;20677;-73
2022/06/20 05:17:39;;;;;;;4.83;2.43;;;;;;;;;;5045101;28;20668;-76
2022/06/20 05:20:30;;;;;;;5.73;2.77;;;;;;;;;;5044118;28;20208;-73
2022/06/20 05:23:34;;;;;;;5.70;2.70;;;;;;;;;;5042948;28;20202;-73
2022/06/20 05:26:21;;;;;;;5.10;2.63;;;;;;;;;;5046305;28;20212;-74
2022/06/20 05:29:07;;;;;;;4.90;2.63;;;;;;;;;;5043945;28;20209;-75
2022/06/20 05:31:53;;;;;;;6.10;2.83;;;;;;;;;;5043820;28;20337;-77
2022/06/20 05:34:53;;;;;;;7.37;3.33;;;;;;;;;;5043997;28;20244;-75
2022/06/20 05:37:25;;;;;;;5.70;2.90;;;;;;;;;;5047671;28;20640;-76
2022/06/20 05:39:54;;;;;;;7.67;3.13;;;;;;;;;;5057299;28;20216;-77
2022/06/20 05:42:20;;;;;;;7.10;3.23;;;;;;;;;;5046192;28;20690;-77
2022/06/20 05:44:46;;;;;;;7.67;3.03;;;;;;;;;;5049140;28;20267;-77
2022/06/20 05:47:13;;;;;;;6.57;2.73;;;;;;;;;;5044603;28;20174;-75
2022/06/20 05:49:42;;;;;;;6.40;2.70;;;;;;;;;;5058913;28;20212;-76
2022/06/20 05:52:08;;;;;;;5.47;2.77;;;;;;;;;;5050458;28;20263;-76
2022/06/20 05:54:42;;;;;;;6.13;3.13;;;;;;;;;;5047708;28;20204;-76
2022/06/20 05:57:12;;;;;;;5.70;2.43;;;;;;;;;;5047609;28;20193;-75
2022/06/20 05:59:41;;;;;;;10.40;2.80;;;;;;;;;;5041838;28;20211;-76
2022/06/20 06:02:11;;;;;;;6.50;2.80;;;;;;;;;;5040534;28;20273;-76
2022/06/20 06:04:40;;;;;;;5.37;2.77;;;;;;;;;;5040036;28;20273;-78
2022/06/20 06:07:13;;;;;;;6.00;2.53;;;;;;;;;;5038846;28;20186;-76
2022/06/20 06:09:46;;;;;;;5.27;2.57;;;;;;;;;;5046404;28;21454;-76
2022/06/20 06:12:22;;;;;;;5.90;2.63;;;;;;;;;;5044427;28;20182;-76
2022/06/20 06:14:51;;;;;;;5.70;2.73;;;;;;;;;;5047086;28;20217;-75
2022/06/20 06:17:22;;;;;;;6.03;2.47;;;;;;;;;;5040880;28;20181;-74
2022/06/20 06:19:48;;;;;;;7.57;2.60;;;;;;;;;;5044987;28;20263;-74
2022/06/20 06:22:19;;;;;;;5.73;2.80;;;;;;;;;;5043140;28;20629;-75
2022/06/20 06:24:47;;;;;;;14.33;4.00;;;;;;;;;;5043000;28;20242;-74
2022/06/20 06:27:23;;;;;;;8.57;3.00;;;;;;;;;;5040308;28;20285;-75
2022/06/20 06:30:00;;;;;;;9.87;3.80;;;;;;;;;;5041924;28;20304;-75
2022/06/20 06:32:34;;;;;;;6.07;3.10;;;;;;;;;;5038858;28;20196;-75
2022/06/20 06:35:13;;;;;;;8.10;3.20;;;;;;;;;;5044721;28;20219;-75
2022/06/20 06:37:49;;;;;;;9.63;3.63;;;;;;;;;;5041092;28;20270;-74
2022/06/20 06:40:18;;;;;;;6.63;3.50;;;;;;;;;;5039802;28;20700;-74
2022/06/20 06:42:47;;;;;;;6.07;3.30;;;;;;;;;;5042046;28;20193;-76
2022/06/20 06:45:24;;;;;;;11.63;3.43;;;;;;;;;;5042786;28;20302;-75
2022/06/20 06:47:58;;;;;;;8.17;3.53;;;;;;;;;;5034740;28;20188;-74
2022/06/20 06:50:29;;;;;;;9.40;3.67;;;;;;;;;;5041220;28;20201;-75
2022/06/20 06:53:01;;;;;;;9.93;3.50;;;;;;;;;;5039507;28;20189;-74
2022/06/20 06:55:33;;;;;;;8.47;3.77;;;;;;;;;;5038836;28;20193;-74
2022/06/20 06:58:08;;;;;;;9.13;3.27;;;;;;;;;;5040311;28;20227;-75
2022/06/20 07:00:38;;;;;;;6.90;3.20;;;;;;;;;;5038404;28;20256;-74
2022/06/20 07:03:09;;;;;;;7.27;3.03;;;;;;;;;;5042277;28;20216;-74
2022/06/20 07:05:37;;;;;;;7.43;3.07;;;;;;;;;;5037794;28;20209;-74
2022/06/20 07:08:03;;;;;;;4.40;2.83;;;;;;;;;;5038386;28;20174;-75
2022/06/20 07:10:52;;;;;;;5.47;2.90;;;;;;;;;;5034686;28;20445;-74
2022/06/20 07:13:22;;;;;;;6.43;3.20;;;;;;;;;;5034922;28;20355;-73
2022/06/20 07:15:50;;;;;;;8.47;3.20;;;;;;;;;;5036105;28;20265;-72
2022/06/20 07:18:31;;;;;;;9.47;3.40;;;;;;;;;;5032200;28;20208;-74
2022/06/20 07:20:58;;;;;;;5.63;3.10;;;;;;;;;;5035167;28;20213;-74
2022/06/20 07:23:24;;;;;;;6.83;3.10;;;;;;;;;;5038560;28;20190;-73
2022/06/20 07:25:51;;;;;;;7.00;3.17;;;;;;;;;;5043305;28;20865;-72
2022/06/20 07:28:18;;;;;;;5.57;3.20;;;;;;;;;;5036499;28;20664;-73
2022/06/20 07:30:46;;;;;;;7.53;3.57;;;;;;;;;;5040023;28;20259;-73
2022/06/20 07:33:18;;;;;;;8.20;3.13;;;;;;;;;;5042858;28;20964;-74
2022/06/20 07:35:46;;;;;;;10.73;3.70;;;;;;;;;;5037726;28;20272;-74
2022/06/20 07:38:15;;;;;;;6.77;3.67;;;;;;;;;;5039576;28;20235;-74
2022/06/20 07:40:53;;;;;;;8.03;3.10;;;;;;;;;;5043067;28;20209;-72
2022/06/20 07:43:51;;;;;;;5.70;3.27;;;;;;;;;;5050037;28;20199;-75
2022/06/20 07:46:27;;;;;;;8.40;3.40;;;;;;;;;;5029426;28;20217;-75
2022/06/20 07:48:56;;;;;;;5.43;3.40;;;;;;;;;;5027036;28;20227;-75
2022/06/20 07:51:26;;;;;;;8.30;3.60;;;;;;;;;;5033318;28;20649;-76
2022/06/20 07:53:52;;;;;;;7.07;3.70;;;;;;;;;;5045584;28;20671;-73
2022/06/20 07:56:26;;;;;;;9.77;3.60;;;;;;;;;;5042363;28;20209;-74
2022/06/20 07:58:56;;;;;;;8.80;3.87;;;;;;;;;;5047292;28;20178;-74
2022/06/20 08:01:30;;;;;;;6.77;3.63;;;;;;;;;;5042798;28;20200;-74
2022/06/20 08:04:02;;;;;;;6.30;3.40;;;;;;;;;;5043899;28;20567;-74
2022/06/20 08:06:33;;;;;;;7.17;3.50;;;;;;;;;;5045215;28;20241;-74
2022/06/20 08:09:03;;;;;;;7.80;3.57;;;;;;;;;;5042907;28;20690;-74
2022/06/20 08:11:41;;;;;;;4.83;3.30;;;;;;;;;;5045724;28;20181;-74
2022/06/20 08:14:11;;;;;;;6.97;3.30;;;;;;;;;;5045832;28;20175;-80
2022/06/20 08:16:38;;;;;;;6.27;3.40;;;;;;;;;;5039493;28;20948;-74
2022/06/20 08:19:06;;;;;;;7.43;3.63;;;;;;;;;;5045492;28;20201;-76
2022/06/20 08:21:37;;;;;;;6.30;4.70;;;;;;;;;;5065582;28;20572;-79
2022/06/20 08:24:13;;;;;;;8.50;4.10;;;;;;;;;;5062064;28;20186;-83
2022/06/20 08:26:42;;;;;;;6.77;3.70;;;;;;;;;;5060070;28;21058;-82
2022/06/20 08:29:11;;;;;;;5.80;3.67;;;;;;;;;;5051470;28;20197;-77
2022/06/20 08:31:41;;;;;;;7.93;3.83;;;;;;;;;;5050196;28;20684;-77
2022/06/20 08:34:10;;;;;;;9.67;3.70;;;;;;;;;;5045759;28;20281;-76
2022/06/20 08:36:45;;;;;;;9.50;4.20;;;;;;;;;;5032216;28;20200;-77
2022/06/20 08:39:33;;;;;;;7.77;3.43;;;;;;;;;;5049051;28;20628;-77
2022/06/20 08:42:18;;;;;;;5.30;3.30;;;;;;;;;;5047111;28;20189;-77
2022/06/20 08:45:00;;;;;;;9.53;3.87;;;;;;;;;;5051996;28;20605;-79
2022/06/20 08:47:44;;;;;;;7.93;3.70;;;;;;;;;;5055938;28;20245;-83
2022/06/20 08:50:20;;;;;;;8.60;3.67;;;;;;;;;;5037227;28;20631;-77
2022/06/20 08:53:05;;;;;;;6.90;3.90;;;;;;;;;;5046492;28;20416;-77
2022/06/20 08:55:37;;;;;;;7.20;4.10;;;;;;;;;;5041655;28;20575;-77
2022/06/20 08:58:16;;;;;;;8.37;4.20;;;;;;;;;;5046557;28;20193;-77
2022/06/20 09:00:46;;;;;;;8.03;4.23;;;;;;;;;;5043892;28;20205;-77
2022/06/20 09:03:35;;;;;;;7.17;3.60;;;;;;;;;;5048626;28;21047;-77
2022/06/20 09:06:18;;;;;;;6.93;3.70;;;;;;;;;;5046724;28;20201;-76
2022/06/20 09:08:47;;;;;;;8.03;4.00;;;;;;;;;;5046345;28;20188;-77
2022/06/20 09:11:25;;;;;;;6.80;4.00;;;;;;;;;;5047162;28;20189;-77
2022/06/20 09:14:10;;;;;;;5.23;3.57;;;;;;;;;;5047425;28;20591;-77
2022/06/20 09:16:51;;;;;;;7.13;3.97;;;;;;;;;;5044545;28;20471;-76
2022/06/20 09:19:20;;;;;;;11.20;4.50;;;;;;;;;;5045266;28;20209;-77
2022/06/20 09:22:06;;;;;;;11.60;4.10;;;;;;;;;;5048592;28;20190;-77
2022/06/20 09:24:43;;;;;;;9.30;4.13;;;;;;;;;;5049226;28;20194;-74
2022/06/20 09:27:10;;;;;;;9.57;3.70;;;;;;;;;;5045954;28;20672;-74
2022/06/20 09:29:48;;;;;;;7.63;3.60;;;;;;;;;;5043592;28;20288;-74
2022/06/20 09:32:49;;;;;;;9.40;3.90;;;;;;;;;;5041359;28;20178;-75
2022/06/20 09:35:34;;;;;;;11.37;4.03;;;;;;;;;;5005163;28;20190;-74
2022/06/20 09:38:01;;;;;;;10.87;4.40;;;;;;;;;;5036989;28;20767;-74
2022/06/20 09:40:47;;;;;;;7.27;4.27;;;;;;;;;;5042242;28;20205;-74
2022/06/20 09:43:30;;;;;;;6.23;4.10;;;;;;;;;;5044253;28;20237;-74
2022/06/20 09:46:07;;;;;;;7.97;4.00;;;;;;;;;;5045229;28;20584;-74
2022/06/20 09:49:06;;;;;;;5.60;3.40;;;;;;;;;;5044453;28;20193;-74
2022/06/20 09:51:48;;;;;;;5.40;3.30;;;;;;;;;;5013588;28;20184;-74
2022/06/20 09:54:15;;;;;;;5.37;2.87;;;;;;;;;;5023238;28;20197;-74
2022/06/20 09:57:14;;;;;;;5.57;3.00;;;;;;;;;;5024674;28;20288;-75
2022/06/20 09:59:43;;;;;;;5.10;2.83;;;;;;;;;;5042109;28;20213;-75
2022/06/20 10:02:29;;;;;;;6.13;2.97;;;;;;;;;;5048762;28;20228;-76
2022/06/20 10:05:16;;;;;;;7.10;3.00;;;;;;;;;;5029340;28;20680;-74
2022/06/20 10:07:46;;;;;;;5.67;2.70;;;;;;;;;;5041595;28;20285;-74
2022/06/20 10:10:30;;;;;;;4.60;3.07;;;;;;;;;;5045966;28;20205;-75
2022/06/20 10:13:15;;;;;;;5.00;3.20;;;;;;;;;;5039887;28;20189;-75
2022/06/20 10:15:57;;;;;;;4.23;3.20;;;;;;;;;;5023815;28;20212;-72
2022/06/20 10:18:23;;;;;;;4.37;2.80;;;;;;;;;;5043297;28;20221;-71
2022/06/20 10:20:53;;;;;;;5.30;3.33;;;;;;;;;;5043033;28;20229;-72
2022/06/20 10:23:28;;;;;;;3.50;2.67;;;;;;;;;;5045063;28;20670;-73
2022/06/20 10:26:04;;;;;;;3.27;2.40;;;;;;;;;;5040906;28;20646;-74
2022/06/20 10:28:40;;;;;;;3.83;2.53;;;;;;;;;;5040668;28;20303;-74
2022/06/20 10:31:09;;;;;;;3.47;1.90;;;;;;;;;;5035832;28;20225;-72
2022/06/20 10:33:59;;;;;;;7.93;2.10;;;;;;;;;;5041324;28;20187;-70
2022/06/20 10:36:43;;;;;;;2.23;1.93;;;;;;;;;;5043411;28;20260;-70
2022/06/20 10:39:10;;;;;;;3.23;2.00;;;;;;;;;;5042553;28;20299;-71
2022/06/20 10:41:38;;;;;;;2.87;1.90;;;;;;;;;;5049875;28;20193;-70
2022/06/20 10:44:05;;;;;;;1.77;1.67;;;;;;;;;;5048648;28;20187;-71
2022/06/20 10:46:31;;;;;;;1.77;1.67;;;;;;;;;;5044169;28;20257;-71
2022/06/20 10:48:57;;;;;;;3.27;2.17;;;;;;;;;;5046009;28;20232;-71
2022/06/20 10:51:23;;;;;;;2.10;1.80;;;;;;;;;;5045294;28;20189;-71
2022/06/20 10:53:52;;;;;;;2.10;1.80;;;;;;;;;;5048147;28;20194;-71
2022/06/20 10:56:28;;;;;;;2.07;1.77;;;;;;;;;;5044089;28;20669;-70
2022/06/20 10:59:02;;;;;;;3.40;1.97;;;;;;;;;;5044378;28;20213;-72
2022/06/20 11:01:49;;;;;;;2.57;1.60;;;;;;;;;;5042584;28;20198;-71
2022/06/20 11:04:25;;;;;;;2.40;1.70;;;;;;;;;;5041664;28;20210;-71
2022/06/20 11:07:02;;;;;;;2.83;1.50;;;;;;;;;;5048558;28;20215;-71
2022/06/20 11:09:35;;;;;;;2.70;1.80;;;;;;;;;;5040169;28;20201;-71
2022/06/20 11:12:07;;;;;;;3.60;1.83;;;;;;;;;;5044048;28;20181;-72
2022/06/20 11:14:36;;;;;;;1.80;1.70;;;;;;;;;;5043754;28;20186;-71
2022/06/20 11:17:11;;;;;;;1.90;1.67;;;;;;;;;;5044648;28;20213;-72
2022/06/20 11:19:44;;;;;;;2.20;1.60;;;;;;;;;;5044181;28;20578;-72
2022/06/20 11:22:30;;;;;;;1.87;1.77;;;;;;;;;;5047360;28;20209;-72
2022/06/20 11:25:20;;;;;;;2.60;1.70;;;;;;;;;;5042916;28;20578;-72
2022/06/20 11:28:03;;;;;;;3.23;1.60;;;;;;;;;;5043496;28;20190;-71
2022/06/20 11:30:53;;;;;;;1.50;1.40;;;;;;;;;;5040174;28;20205;-71
2022/06/20 11:33:22;;;;;;;1.60;1.50;;;;;;;;;;5024947;28;20194;-73
2022/06/20 11:36:08;;;;;;;2.07;1.67;;;;;;;;;;5043172;28;20233;-69
2022/06/20 11:38:43;;;;;;;7.20;1.60;;;;;;;;;;5047184;28;20194;-69
2022/06/20 11:41:15;;;;;;;2.17;1.50;;;;;;;;;;5039866;28;20196;-69
2022/06/20 11:43:41;;;;;;;1.70;1.60;;;;;;;;;;5045517;28;20174;-69
2022/06/20 11:46:26;;;;;;;1.60;1.50;;;;;;;;;;5044037;28;20235;-72
2022/06/20 11:48:55;;;;;;;1.70;1.60;;;;;;;;;;5048046;28;20193;-71
2022/06/20 11:51:25;;;;;;;2.00;1.80;;;;;;;;;;5041624;28;20241;-69
2022/06/20 11:54:13;;;;;;;2.00;1.80;;;;;;;;;;5044148;28;20597;-69
2022/06/20 11:56:45;;;;;;;2.87;1.87;;;;;;;;;;5045794;28;20281;-69
2022/06/20 11:59:18;;;;;;;2.33;1.83;;;;;;;;;;5026805;28;20209;-69
2022/06/20 12:01:51;;;;;;;2.30;2.10;;;;;;;;;;5045880;28;20211;-69
2022/06/20 12:04:24;;;;;;;2.80;2.30;;;;;;;;;;5045171;28;20194;-70
2022/06/20 12:07:13;;;;;;;2.10;1.90;;;;;;;;;;5043580;28;20579;-69
2022/06/20 12:09:39;;;;;;;1.97;1.87;;;;;;;;;;5035956;28;20217;-70
2022/06/20 12:12:29;;;;;;;2.40;2.20;;;;;;;;;;5045456;28;20248;-70
2022/06/20 12:15:02;;;;;;;3.83;2.63;;;;;;;;;;5034741;28;20191;-71
2022/06/20 12:17:38;;;;;;;3.27;2.10;;;;;;;;;;5042674;28;20209;-69
2022/06/20 12:25:45;;;;;;;2.20;1.90;;;;;;;;;;5040606;28;20258;-71
2022/06/20 12:28:18;;;;;;;2.30;2.10;;;;;;;;;;5054294;28;20183;-69
2022/06/20 12:30:46;;;;;;;2.40;2.20;;;;;;;;;;5041319;28;20198;-71
2022/06/20 12:33:13;;;;;;;3.97;1.90;;;;;;;;;;5050621;28;20179;-69
2022/06/20 12:35:43;;;;;;;3.60;2.00;;;;;;;;;;5040795;28;20529;-71
2022/06/20 12:38:16;;;;;;;1.77;1.57;;;;;;;;;;5044493;28;20214;-69
2022/06/20 12:40:47;;;;;;;1.57;1.40;;;;;;;;;;5052135;28;20194;-71
2022/06/20 12:43:18;;;;;;;1.50;1.40;;;;;;;;;;5045663;28;20189;-70
2022/06/20 12:46:00;;;;;;;2.90;1.50;;;;;;;;;;5037922;28;20617;-69
2022/06/20 12:48:45;;;;;;;1.47;1.37;;;;;;;;;;5042806;28;20210;-70
2022/06/20 12:51:18;;;;;;;1.50;1.40;;;;;;;;;;5043040;28;20179;-70
2022/06/20 12:54:03;;;;;;;2.50;1.23;;;;;;;;;;5049932;28;20186;-70
2022/06/20 12:56:46;;;;;;;2.00;1.60;;;;;;;;;;5054425;28;20346;-70
2022/06/20 12:59:25;;;;;;;1.40;1.30;;;;;;;;;;5042148;28;20236;-70
2022/06/20 13:02:04;;;;;;;4.63;1.50;;;;;;;;;;5051238;28;20250;-70
2022/06/20 13:04:51;;;;;;;2.13;1.60;;;;;;;;;;5044286;28;20201;-70
2022/06/20 13:07:41;;;;;;;2.33;1.60;;;;;;;;;;5044392;28;20217;-71
2022/06/20 13:10:18;;;;;;;1.53;1.43;;;;;;;;;;5050315;28;20215;-71
2022/06/20 13:12:52;;;;;;;1.50;1.40;;;;;;;;;;5048589;28;20190;-69
2022/06/20 13:15:31;;;;;;;2.67;1.50;;;;;;;;;;5049471;28;20186;-69
2022/06/20 13:18:21;;;;;;;2.00;1.50;;;;;;;;;;5047459;28;20197;-69
2022/06/20 13:21:16;;;;;;;1.73;1.60;;;;;;;;;;5045151;28;20207;-69
2022/06/20 13:23:43;;;;;;;1.30;1.20;;;;;;;;;;5045784;28;20328;-69
2022/06/20 13:26:25;;;;;;;1.53;1.40;;;;;;;;;;5048175;28;20197;-69
2022/06/20 13:29:14;;;;;;;3.07;1.80;;;;;;;;;;5038695;28;20334;-69
2022/06/20 13:31:42;;;;;;;2.03;1.60;;;;;;;;;;5043712;28;20186;-69
2022/06/20 13:34:15;;;;;;;1.60;1.50;;;;;;;;;;5049499;28;20590;-69
2022/06/20 13:36:44;;;;;;;2.23;1.80;;;;;;;;;;5047623;28;20213;-68
2022/06/20 13:39:18;;;;;;;1.53;1.43;;;;;;;;;;5036493;28;20224;-69
2022/06/20 13:41:49;;;;;;;1.50;1.40;;;;;;;;;;5042465;28;20242;-69
2022/06/20 13:44:22;;;;;;;3.63;1.40;;;;;;;;;;5044122;28;20202;-68
2022/06/20 13:47:24;;;;;;;2.30;1.53;;;;;;;;;;5046030;28;20202;-69
2022/06/20 13:49:59;;;;;;;2.23;1.77;;;;;;;;;;5002163;28;20240;-69
2022/06/20 13:52:39;;;;;;;1.60;1.50;;;;;;;;;;5042917;28;20188;-68
2022/06/20 13:55:30;;;;;;;1.63;1.50;;;;;;;;;;5043864;28;20790;-69
2022/06/20 13:58:00;;;;;;;2.57;1.40;;;;;;;;;;5039202;28;20188;-69
2022/06/20 14:00:31;;;;;;;1.97;1.50;;;;;;;;;;5040231;28;20198;-68
2022/06/20 14:03:08;;;;;;;1.70;1.60;;;;;;;;;;5036664;28;20300;-70
2022/06/20 14:05:45;;;;;;;6.10;1.70;;;;;;;;;;5029811;28;20206;-68
2022/06/20 14:08:33;;;;;;;1.60;1.50;;;;;;;;;;5042094;28;20178;-69
2022/06/20 14:11:25;;;;;;;2.43;1.57;;;;;;;;;;5042317;28;20616;-69
2022/06/20 14:14:02;;;;;;;1.70;1.60;;;;;;;;;;5043139;28;20198;-68
2022/06/20 14:16:40;;;;;;;1.90;1.70;;;;;;;;;;5036677;28;20186;-68
2022/06/20 14:19:15;;;;;;;1.60;1.50;;;;;;;;;;5041161;28;20736;-69
2022/06/20 14:21:49;;;;;;;3.43;1.50;;;;;;;;;;5044344;28;20221;-70
2022/06/20 14:24:34;;;;;;;1.60;1.50;;;;;;;;;;5047149;28;20272;-70
2022/06/20 14:27:19;;;;;;;1.60;1.50;;;;;;;;;;5042363;28;20660;-69
2022/06/20 14:30:00;;;;;;;1.80;1.40;;;;;;;;;;5041882;28;20202;-70
2022/06/20 14:32:58;;;;;;;1.60;1.50;;;;;;;;;;5038467;28;20638;-69
2022/06/20 14:35:39;;;;;;;1.63;1.53;;;;;;;;;;5039185;28;20215;-70
2022/06/20 14:38:18;;;;;;;1.60;1.50;;;;;;;;;;5039737;28;20513;-71
2022/06/20 14:41:04;;;;;;;3.20;1.40;;;;;;;;;;5039404;28;20580;-72
2022/06/20 14:43:43;;;;;;;2.17;1.30;;;;;;;;;;5041143;28;20190;-75
2022/06/20 14:46:27;;;;;;;2.43;1.47;;;;;;;;;;5044760;28;20304;-75
2022/06/20 14:49:03;;;;;;;2.43;1.20;;;;;;;;;;5044126;28;20182;-74
2022/06/20 14:51:54;;;;;;;2.73;1.07;;;;;;;;;;5041547;28;20186;-74
2022/06/20 14:54:45;;;;;;;1.67;1.00;;;;;;;;;;5047261;28;20233;-74
2022/06/20 14:57:34;;;;;;;1.77;1.00;;;;;;;;;;5041711;28;20570;-74
2022/06/20 15:00:19;;;;;;;1.97;1.10;;;;;;;;;;5038128;28;20201;-74
2022/06/20 15:02:53;;;;;;;2.07;0.90;;;;;;;;;;5039401;28;21006;-74
2022/06/20 15:05:40;;;;;;;1.20;1.00;;;;;;;;;;5043335;28;20673;-74
2022/06/20 15:08:14;;;;;;;1.17;0.90;;;;;;;;;;5046417;28;20181;-74
2022/06/20 15:10:48;;;;;;;2.87;0.93;;;;;;;;;;5049553;28;20265;-74
2022/06/20 15:13:21;;;;;;;1.03;1.00;;;;;;;;;;5043724;28;20179;-74
2022/06/20 15:15:51;;;;;;;1.20;1.10;;;;;;;;;;5043684;28;20269;-75
2022/06/20 15:18:34;;;;;;;2.13;1.00;;;;;;;;;;5038821;28;20194;-75
2022/06/20 15:21:26;;;;;;;2.47;1.00;;;;;;;;;;5041643;28;20214;-75
2022/06/20 15:23:56;;;;;;;0.90;0.90;;;;;;;;;;5034558;28;20265;-75
2022/06/20 15:26:34;;;;;;;2.17;0.80;;;;;;;;;;5041041;28;20221;-75
2022/06/20 15:29:14;;;;;;;1.23;1.00;;;;;;;;;;5045336;28;20191;-75
2022/06/20 15:31:50;;;;;;;3.43;1.13;;;;;;;;;;5038329;28;21820;-76
2022/06/20 15:34:27;;;;;;;1.20;1.10;;;;;;;;;;5038590;28;20205;-75
2022/06/20 15:36:56;;;;;;;1.50;1.10;;;;;;;;;;5042039;28;20197;-74
2022/06/20 15:39:25;;;;;;;1.93;1.10;;;;;;;;;;5040599;28;20531;-74
2022/06/20 15:44:42;;;;;;;1.60;1.10;;;;;;;;;;5044536;28;20189;-75
2022/06/20 15:47:08;;;;;;;5.57;1.33;;;;;;;;;;5040914;28;20617;-74
2022/06/20 15:49:53;;;;;;;3.00;1.20;;;;;;;;;;5046274;28;20711;-74
2022/06/20 15:52:19;;;;;;;3.17;0.87;;;;;;;;;;5043635;28;20192;-75
2022/06/20 15:54:53;;;;;;;1.50;1.03;;;;;;;;;;5037509;28;20269;-75
2022/06/20 15:57:23;;;;;;;2.27;1.13;;;;;;;;;;5036984;28;20192;-75
2022/06/20 16:00:12;;;;;;;2.20;1.00;;;;;;;;;;5043806;28;20209;-75
2022/06/20 16:02:41;;;;;;;1.67;1.00;;;;;;;;;;5041937;28;20193;-74
2022/06/20 16:05:13;;;;;;;0.73;0.73;;;;;;;;;;5042237;28;20758;-79